createdAt,value
2023-05-14T06:52:52.729Z,94777.50
2023-05-14T06:55:19.134Z,94772.91
2023-05-14T06:57:45.573Z,94779.13
2023-05-14T07:00:11.959Z,94781.56
2023-05-14T07:02:38.398Z,94775.66
2023-05-14T07:05:04.804Z,94778.22
2023-05-14T07:07:31.199Z,94772.25
2023-05-14T07:09:57.611Z,94780.97
2023-05-14T07:12:23.994Z,94778.97
2023-05-14T07:14:50.406Z,94778.06
2023-05-14T07:17:16.900Z,94777.75
2023-05-14T07:19:43.394Z,94780.19
2023-05-14T07:22:09.759Z,94777.34
2023-05-14T07:24:36.151Z,94775.72
2023-05-14T07:27:02.596Z,94776.56
2023-05-14T07:29:28.995Z,94766.91
2023-05-14T07:31:55.395Z,94767.50
2023-05-14T07:34:21.790Z,94768.19
2023-05-14T07:36:48.170Z,94763.63
2023-05-14T07:39:14.577Z,94765.31
2023-05-14T07:41:41.013Z,94762.91
2023-05-14T07:44:07.478Z,94763.41
2023-05-14T07:46:33.867Z,94754.91
2023-05-14T07:49:00.336Z,94759.91
2023-05-14T07:51:26.727Z,94756.66
2023-05-14T07:53:53.067Z,94763.19
2023-05-14T07:56:19.474Z,94761.69
2023-05-14T07:58:45.848Z,94757.53
2023-05-14T08:01:12.226Z,94755.28
2023-05-14T08:03:38.731Z,94758.81
2023-05-14T08:06:05.184Z,94761.69
2023-05-14T08:08:31.588Z,94754.78
2023-05-14T08:10:58.018Z,94765.50
2023-05-14T08:13:24.419Z,94764.53
2023-05-14T08:15:50.816Z,94759.16
2023-05-14T08:18:17.217Z,94754.13
2023-05-14T08:20:43.670Z,94759.97
2023-05-14T08:23:10.116Z,94760.63
2023-05-14T08:25:36.537Z,94759.09
2023-05-14T08:28:02.918Z,94757.13
2023-05-14T08:30:29.348Z,94754.88
2023-05-14T08:32:55.792Z,94745.75
2023-05-14T08:35:22.250Z,94751.53
2023-05-14T08:37:48.644Z,94749.72
2023-05-14T08:40:15.076Z,94745.00
2023-05-14T08:42:41.458Z,94740.88
2023-05-14T08:45:07.874Z,94750.84
2023-05-14T08:47:34.294Z,94742.53
2023-05-14T08:50:00.709Z,94741.88
2023-05-14T08:52:27.072Z,94736.75
2023-05-14T08:54:53.467Z,94731.84
2023-05-14T08:57:19.878Z,94725.09
2023-05-14T08:59:46.281Z,94732.91
2023-05-14T09:02:12.754Z,94735.69
2023-05-14T09:04:39.144Z,94735.69
2023-05-14T09:07:05.576Z,94733.00
2023-05-14T09:09:31.953Z,94726.47
2023-05-14T09:11:58.485Z,94732.88
2023-05-14T09:14:24.906Z,94723.38
2023-05-14T09:16:51.335Z,94716.72
2023-05-14T09:19:17.957Z,94720.00
2023-05-14T09:21:44.487Z,94726.09
2023-05-14T09:24:10.880Z,94725.31
2023-05-14T09:26:38.284Z,94723.44
2023-05-14T09:29:04.720Z,94729.94
2023-05-14T09:31:31.161Z,94722.25
2023-05-14T09:33:57.561Z,94711.19
2023-05-14T09:36:24.008Z,94716.16
2023-05-14T09:38:50.420Z,94715.53
2023-05-14T09:41:16.794Z,94704.97
2023-05-14T09:43:43.302Z,94714.44
2023-05-14T09:46:09.703Z,94713.56
2023-05-14T09:48:36.105Z,94710.56
2023-05-14T09:51:04.010Z,94711.06
2023-05-14T09:53:31.064Z,94715.63
2023-05-14T09:55:57.484Z,94706.34
2023-05-14T09:58:23.892Z,94708.94
2023-05-14T10:00:50.344Z,94706.59
2023-05-14T10:03:19.571Z,94702.91
2023-05-14T10:05:46.340Z,94701.63
2023-05-14T10:08:12.837Z,94701.72
2023-05-14T10:10:39.224Z,94691.84
2023-05-14T10:13:05.629Z,94697.38
2023-05-14T10:15:32.034Z,94695.63
2023-05-14T10:17:58.525Z,94701.38
2023-05-14T10:20:25.214Z,94701.50
2023-05-14T10:22:51.881Z,94706.91
2023-05-14T10:25:18.310Z,94701.84
2023-05-14T10:27:44.726Z,94684.75
2023-05-14T10:30:11.150Z,94696.38
2023-05-14T10:32:37.568Z,94700.97
2023-05-14T10:35:04.046Z,94690.75
2023-05-14T10:37:30.455Z,94690.44
2023-05-14T10:39:56.886Z,94690.84
2023-05-14T10:42:23.310Z,94686.56
2023-05-14T10:44:49.742Z,94699.31
2023-05-14T10:47:16.393Z,94693.50
2023-05-14T10:49:44.030Z,94696.84
2023-05-14T10:52:10.496Z,94693.63
2023-05-14T10:54:36.874Z,94683.50
2023-05-14T10:57:03.305Z,94680.53
2023-05-14T10:59:29.687Z,94691.97
2023-05-14T11:01:56.179Z,94686.13
2023-05-14T11:04:22.626Z,94682.41
2023-05-14T11:06:49.014Z,94686.31
2023-05-14T11:09:15.415Z,94675.41
2023-05-14T11:11:41.802Z,94679.91
2023-05-14T11:14:10.131Z,94680.97
2023-05-14T11:16:36.627Z,94671.16
2023-05-14T11:19:03.120Z,94678.19
2023-05-14T11:21:29.738Z,94673.75
2023-05-14T11:23:56.139Z,94674.78
2023-05-14T11:26:22.569Z,94665.78
2023-05-14T11:28:48.983Z,94664.63
2023-05-14T11:31:15.420Z,94664.81
2023-05-14T11:33:41.843Z,94668.63
2023-05-14T11:36:08.247Z,94668.81
2023-05-14T11:38:34.628Z,94664.38
2023-05-14T11:41:01.049Z,94662.97
2023-05-14T11:43:28.456Z,94662.66
2023-05-14T11:45:54.935Z,94659.25
2023-05-14T11:48:21.382Z,94666.50
2023-05-14T11:50:47.765Z,94655.53
2023-05-14T11:53:14.197Z,94664.16
2023-05-14T11:55:40.578Z,94660.13
2023-05-14T11:58:07.004Z,94657.84
2023-05-14T12:00:33.407Z,94650.16
2023-05-14T12:02:59.880Z,94655.78
2023-05-14T12:05:26.387Z,94648.59
2023-05-14T12:07:52.777Z,94645.69
2023-05-14T12:10:19.174Z,94644.66
2023-05-14T12:12:45.549Z,94644.53
2023-05-14T12:15:11.993Z,94643.34
2023-05-14T12:17:38.424Z,94641.69
2023-05-14T12:20:04.894Z,94637.81
2023-05-14T12:22:31.272Z,94635.28
2023-05-14T12:24:57.800Z,94643.66
2023-05-14T12:27:24.203Z,94646.06
2023-05-14T12:29:50.611Z,94654.97
2023-05-14T12:32:16.999Z,94652.13
2023-05-14T12:34:43.420Z,94656.19
2023-05-14T12:37:09.788Z,94646.47
2023-05-14T12:39:36.197Z,94651.69
2023-05-14T12:44:14.769Z,94634.88
2023-05-14T12:46:41.227Z,94638.59
2023-05-14T12:49:07.652Z,94636.19
2023-05-14T12:51:34.036Z,94634.09
2023-05-14T12:54:00.429Z,94630.47
2023-05-14T12:56:26.898Z,94631.63
2023-05-14T12:58:53.281Z,94632.47
2023-05-14T13:01:19.873Z,94635.44
2023-05-14T13:03:46.301Z,94630.66
2023-05-14T13:06:12.685Z,94634.63
2023-05-14T13:08:40.133Z,94623.28
2023-05-14T13:11:07.845Z,94620.22
2023-05-14T13:13:34.341Z,94611.69
2023-05-14T13:16:00.772Z,94615.41
2023-05-14T13:18:27.256Z,94607.06
2023-05-14T13:20:53.663Z,94612.84
2023-05-14T13:23:20.073Z,94613.19
2023-05-14T13:25:48.485Z,94614.47
2023-05-14T13:28:16.204Z,94609.94
2023-05-14T13:30:42.608Z,94599.88
2023-05-14T13:33:09.122Z,94608.44
2023-05-14T13:35:35.593Z,94599.53
2023-05-14T13:38:02.042Z,94594.91
2023-05-14T13:40:28.456Z,94596.84
2023-05-14T13:42:54.831Z,94598.22
2023-05-14T13:45:21.276Z,94599.53
2023-05-14T13:47:48.788Z,94595.97
2023-05-14T13:50:15.967Z,94594.63
2023-05-14T13:52:42.356Z,94583.59
2023-05-14T13:55:08.740Z,94591.41
2023-05-14T13:57:35.157Z,94585.66
2023-05-14T14:00:01.642Z,94587.09
2023-05-14T14:02:28.116Z,94595.75
2023-05-14T14:04:54.576Z,94587.53
2023-05-14T14:07:21.034Z,94597.81
2023-05-14T14:09:47.569Z,94591.81
2023-05-14T14:12:14.501Z,94580.72
2023-05-14T14:14:41.009Z,94587.28
2023-05-14T14:17:07.422Z,94585.78
2023-05-14T14:19:33.844Z,94579.28
2023-05-14T14:22:00.241Z,94573.56
2023-05-14T14:24:26.716Z,94576.47
2023-05-14T14:26:56.358Z,94569.81
2023-05-14T14:30:50.077Z,94574.44
2023-05-14T14:33:16.565Z,94577.19
2023-05-14T14:35:42.963Z,94576.03
2023-05-14T14:38:09.739Z,94570.41
2023-05-14T14:40:36.282Z,94568.94
2023-05-14T14:43:02.760Z,94576.25
2023-05-14T14:45:29.141Z,94574.13
2023-05-14T14:47:55.579Z,94574.53
2023-05-14T14:50:22.005Z,94576.47
2023-05-14T14:52:48.394Z,94568.47
2023-05-14T14:55:14.892Z,94568.63
2023-05-14T14:57:41.402Z,94572.97
2023-05-14T15:00:07.989Z,94571.69
2023-05-14T15:02:34.878Z,94569.34
2023-05-14T15:05:01.457Z,94573.59
2023-05-14T15:07:27.966Z,94569.88
2023-05-14T15:09:54.379Z,94572.06
2023-05-14T15:12:20.883Z,94571.72
2023-05-14T15:14:47.351Z,94570.34
2023-05-14T15:17:13.804Z,94569.22
2023-05-14T15:19:40.199Z,94568.47
2023-05-14T15:22:06.651Z,94575.34
2023-05-14T15:24:33.059Z,94573.91
2023-05-14T15:26:59.488Z,94572.47
2023-05-14T15:29:25.961Z,94565.94
2023-05-14T15:31:52.464Z,94565.50
2023-05-14T15:34:18.991Z,94577.72
2023-05-14T15:36:47.578Z,94573.84
2023-05-14T15:39:14.010Z,94572.63
2023-05-14T15:41:40.406Z,94573.84
2023-05-14T15:44:06.850Z,94580.72
2023-05-14T15:46:33.253Z,94581.91
2023-05-14T15:48:59.704Z,94583.25
2023-05-14T15:51:26.114Z,94584.28
2023-05-14T15:53:52.560Z,94582.47
2023-05-14T15:56:18.928Z,94578.31
2023-05-14T15:58:45.340Z,94578.47
2023-05-14T16:01:11.711Z,94589.44
2023-05-14T16:03:38.197Z,94596.06
2023-05-14T16:06:04.752Z,94588.53
2023-05-14T16:08:31.223Z,94590.81
2023-05-14T16:10:57.605Z,94580.88
2023-05-14T16:13:24.059Z,94569.44
2023-05-14T16:15:50.464Z,94570.34
2023-05-14T16:18:16.902Z,94573.03
2023-05-14T16:20:43.369Z,94572.94
2023-05-14T16:23:09.836Z,94574.78
2023-05-14T16:25:36.306Z,94576.97
2023-05-14T16:28:02.797Z,94576.38
2023-05-14T16:30:29.298Z,94580.31
2023-05-14T16:32:55.848Z,94582.69
2023-05-14T16:35:22.365Z,94584.06
2023-05-14T16:37:48.934Z,94586.97
2023-05-14T16:40:15.488Z,94589.50
2023-05-14T16:42:42.154Z,94592.31
2023-05-14T16:45:08.545Z,94589.91
2023-05-14T16:47:35.272Z,94596.41
2023-05-14T16:50:01.997Z,94584.50
2023-05-14T16:52:28.666Z,94592.91
2023-05-14T16:54:55.075Z,94591.13
2023-05-14T16:57:21.458Z,94593.31
2023-05-14T16:59:47.863Z,94593.66
2023-05-14T17:02:14.306Z,94596.22
2023-05-14T17:04:40.797Z,94595.09
2023-05-14T17:07:07.286Z,94593.84
2023-05-14T17:09:33.710Z,94593.75
2023-05-14T17:12:00.259Z,94603.59
2023-05-14T17:14:26.681Z,94614.78
2023-05-14T17:16:53.103Z,94608.00
2023-05-14T17:19:19.488Z,94609.91
2023-05-14T17:21:45.881Z,94621.44
2023-05-14T17:24:12.265Z,94623.47
2023-05-14T17:26:38.687Z,94624.25
2023-05-14T17:29:05.102Z,94628.78
2023-05-14T17:31:31.536Z,94621.00
2023-05-14T17:33:57.968Z,94624.22
2023-05-14T17:36:24.380Z,94628.22
2023-05-14T17:38:50.871Z,94638.75
2023-05-14T17:41:17.266Z,94639.13
2023-05-14T17:43:43.680Z,94633.16
2023-05-14T17:46:10.282Z,94636.75
2023-05-14T17:48:36.828Z,94634.63
2023-05-14T17:51:03.243Z,94645.25
2023-05-14T17:53:29.628Z,94633.19
2023-05-14T17:55:56.120Z,94646.69
2023-05-14T17:58:22.546Z,94644.97
2023-05-14T18:00:49.023Z,94632.38
2023-05-14T18:03:15.595Z,94645.19
2023-05-14T18:05:42.077Z,94649.13
2023-05-14T18:08:08.518Z,94654.47
2023-05-14T18:10:34.967Z,94651.34
2023-05-14T18:13:01.461Z,94651.13
2023-05-14T18:15:27.918Z,94649.09
2023-05-14T18:17:54.607Z,94653.81
2023-05-14T18:20:21.237Z,94657.38
2023-05-14T18:22:47.705Z,94663.00
2023-05-14T18:25:14.226Z,94659.50
2023-05-14T18:27:40.756Z,94674.38
2023-05-14T18:30:07.291Z,94664.22
2023-05-14T18:32:34.772Z,94676.28
2023-05-14T18:35:01.284Z,94681.66
2023-05-14T18:37:27.821Z,94662.69
2023-05-14T18:39:54.327Z,94682.28
2023-05-14T18:42:20.795Z,94670.31
2023-05-14T18:44:47.462Z,94676.03
2023-05-14T18:47:13.998Z,94676.16
2023-05-14T18:49:40.762Z,94679.59
2023-05-14T18:52:07.412Z,94686.00
2023-05-14T18:54:34.046Z,94691.00
2023-05-14T18:57:00.661Z,94698.56
2023-05-14T18:59:28.305Z,94681.59
2023-05-14T19:01:55.123Z,94694.34
2023-05-14T19:04:21.789Z,94683.78
2023-05-14T19:06:48.314Z,94700.78
2023-05-14T19:09:15.022Z,94699.16
2023-05-14T19:11:41.570Z,94713.59
2023-05-14T19:14:08.194Z,94728.06
2023-05-14T19:16:34.900Z,94734.13
2023-05-14T19:19:01.568Z,94738.06
2023-05-14T19:21:28.167Z,94748.22
2023-05-14T19:23:54.775Z,94742.56
2023-05-14T19:26:21.317Z,94739.84
2023-05-14T19:28:47.820Z,94751.38
2023-05-14T19:31:14.386Z,94749.19
2023-05-14T19:33:41.029Z,94742.03
2023-05-14T19:36:10.838Z,94751.56
2023-05-14T19:38:37.436Z,94752.53
2023-05-14T19:41:04.054Z,94747.63
2023-05-14T19:43:30.663Z,94756.63
2023-05-14T19:45:57.775Z,94747.41
2023-05-14T19:48:24.980Z,94757.16
2023-05-14T19:50:51.617Z,94755.31
2023-05-14T19:53:18.255Z,94753.69
2023-05-14T19:55:44.872Z,94763.38
2023-05-14T19:58:11.560Z,94763.44
2023-05-14T20:00:38.126Z,94765.56
2023-05-14T20:03:04.817Z,94766.84
2023-05-14T20:05:31.331Z,94769.78
2023-05-14T20:07:57.778Z,94761.66
2023-05-14T20:10:26.578Z,94764.66
2023-05-14T20:12:53.375Z,94773.75
2023-05-14T20:15:19.902Z,94777.41
2023-05-14T20:17:47.495Z,94777.75
2023-05-14T20:20:14.105Z,94779.31
2023-05-14T20:22:40.798Z,94780.63
2023-05-14T20:25:07.287Z,94785.81
2023-05-14T20:27:33.757Z,94777.81
2023-05-14T20:30:00.177Z,94780.56
2023-05-14T20:32:26.627Z,94777.91
2023-05-14T20:34:53.040Z,94778.38
2023-05-14T20:37:19.441Z,94769.28
2023-05-14T20:39:45.909Z,94765.13
2023-05-14T20:42:12.339Z,94768.25
2023-05-14T20:44:38.735Z,94762.25
2023-05-14T20:47:05.265Z,94766.84
2023-05-14T20:49:31.646Z,94764.25
2023-05-14T20:51:58.057Z,94761.28
2023-05-14T20:54:24.470Z,94760.25
2023-05-14T20:56:50.986Z,94762.56
2023-05-14T20:59:17.403Z,94757.06
2023-05-14T21:01:43.890Z,94764.34
2023-05-14T21:04:10.402Z,94772.38
2023-05-14T21:06:36.916Z,94777.94
2023-05-14T21:09:03.310Z,94774.41
2023-05-14T21:11:29.822Z,94779.47
2023-05-14T21:13:56.271Z,94767.81
2023-05-14T21:16:22.744Z,94762.16
2023-05-14T21:18:49.209Z,94756.72
2023-05-14T21:21:15.634Z,94755.09
2023-05-14T21:23:42.064Z,94762.97
2023-05-14T21:26:08.533Z,94771.63
2023-05-14T21:28:34.924Z,94760.94
2023-05-14T21:31:01.358Z,94762.03
2023-05-14T21:33:27.792Z,94762.34
2023-05-14T21:35:54.164Z,94760.22
2023-05-14T21:38:20.627Z,94766.28
2023-05-14T21:40:47.000Z,94763.16
2023-05-14T21:43:13.511Z,94766.16
2023-05-14T21:45:39.908Z,94763.28
2023-05-14T21:48:06.384Z,94760.75
2023-05-14T21:50:32.831Z,94758.09
2023-05-14T21:52:59.192Z,94753.19
2023-05-14T21:55:25.878Z,94752.19
2023-05-14T21:57:52.643Z,94752.16
2023-05-14T22:00:19.057Z,94753.72
2023-05-14T22:02:45.514Z,94744.22
2023-05-14T22:05:11.914Z,94750.59
2023-05-14T22:07:38.294Z,94748.72
2023-05-14T22:10:04.665Z,94736.84
2023-05-14T22:12:31.067Z,94738.91
2023-05-14T22:14:57.477Z,94737.47
2023-05-14T22:17:23.916Z,94737.19
2023-05-14T22:19:50.287Z,94739.72
2023-05-14T22:22:16.673Z,94741.22
2023-05-14T22:24:43.102Z,94736.84
2023-05-14T22:27:09.473Z,94741.41
2023-05-14T22:29:38.176Z,94739.78
2023-05-14T22:32:04.846Z,94739.84
2023-05-14T22:34:31.271Z,94741.00
2023-05-14T22:36:57.659Z,94735.81
2023-05-14T22:39:24.107Z,94735.56
2023-05-14T22:41:50.512Z,94743.88
2023-05-14T22:44:16.953Z,94744.69
2023-05-14T22:46:43.449Z,94750.16
2023-05-14T22:49:09.875Z,94749.88
2023-05-14T22:51:36.280Z,94745.38
2023-05-14T22:54:02.672Z,94752.19
2023-05-14T22:56:29.111Z,94749.25
2023-05-14T22:58:55.546Z,94741.97
2023-05-14T23:01:21.973Z,94736.78
2023-05-14T23:03:48.377Z,94739.09
2023-05-14T23:06:14.743Z,94736.78
2023-05-14T23:08:41.159Z,94735.69
2023-05-14T23:11:07.534Z,94743.31
2023-05-14T23:13:33.970Z,94732.28
2023-05-14T23:16:00.367Z,94728.66
2023-05-14T23:18:26.903Z,94727.91
2023-05-14T23:20:53.518Z,94725.00
2023-05-14T23:23:19.916Z,94716.47
2023-05-14T23:25:46.285Z,94715.66
2023-05-14T23:28:12.689Z,94711.28
2023-05-14T23:30:39.093Z,94718.78
2023-05-14T23:33:05.532Z,94713.84
2023-05-14T23:35:31.939Z,94716.97
2023-05-14T23:37:58.332Z,94713.09
2023-05-14T23:40:24.740Z,94708.44
2023-05-14T23:42:51.210Z,94711.78
2023-05-14T23:45:17.627Z,94708.09
2023-05-14T23:47:44.102Z,94707.84
2023-05-14T23:50:10.551Z,94707.03
2023-05-14T23:52:36.914Z,94713.16
2023-05-14T23:55:03.335Z,94718.00
2023-05-14T23:57:29.725Z,94711.91
2023-05-14T23:59:56.141Z,94706.81
